createdAt,value
2018-01-10T00:00:10.315Z,1013.73
2018-01-10T00:09:50.963Z,1014.77
2018-01-10T00:19:20.066Z,1013.73
2018-01-10T00:28:56.454Z,1014.77
2018-01-10T00:38:33.389Z,1014.77
2018-01-10T00:48:13.617Z,1014.77
2018-01-10T00:57:46.740Z,1013.73
2018-01-10T01:07:19.871Z,1013.73
2018-01-10T01:16:49.152Z,1013.73
2018-01-10T01:26:29.843Z,1013.73
2018-01-10T01:35:58.574Z,1013.73
2018-01-10T01:45:34.884Z,1013.73
2018-01-10T01:55:15.691Z,1012.68
2018-01-10T02:04:48.439Z,1012.68
2018-01-10T02:14:18.077Z,1013.73
2018-01-10T02:23:54.259Z,1012.68
2018-01-10T02:33:35.262Z,1012.68
2018-01-10T02:43:04.666Z,1012.68
2018-01-10T02:52:41.251Z,1012.68
2018-01-10T03:02:21.808Z,1012.68
2018-01-10T03:11:55.256Z,1012.68
2018-01-10T03:21:24.080Z,1012.68
2018-01-10T03:31:04.721Z,1012.68
2018-01-10T03:40:33.838Z,1012.68
2018-01-10T03:50:10.093Z,1012.68
2018-01-10T03:59:50.600Z,1012.68
2018-01-10T04:09:23.501Z,1011.63
2018-01-10T04:18:52.738Z,1011.63
2018-01-10T04:28:29.320Z,1011.63
2018-01-10T04:38:06.441Z,1011.63
2018-01-10T04:47:42.956Z,1011.63
2018-01-10T04:57:23.673Z,1011.63
2018-01-10T05:06:56.378Z,1011.63
2018-01-10T05:16:29.398Z,1011.63
2018-01-10T05:25:58.609Z,1011.63
2018-01-10T05:35:35.301Z,1011.63
2018-01-10T05:45:15.987Z,1010.59
2018-01-10T05:54:45.189Z,1010.59
2018-01-10T06:04:21.520Z,1010.59
2018-01-10T06:14:02.750Z,1010.59
2018-01-10T06:23:31.797Z,1011.63
2018-01-10T06:33:08.272Z,1011.63
2018-01-10T06:42:49.353Z,1010.59
2018-01-10T06:52:22.460Z,1010.59
2018-01-10T07:01:51.083Z,1010.59
2018-01-10T07:11:28.132Z,1010.59
2018-01-10T07:21:09.148Z,1010.59
2018-01-10T07:30:37.911Z,1010.59
2018-01-10T07:40:18.547Z,1010.59
2018-01-10T07:49:52.011Z,1010.59
2018-01-10T07:59:21.015Z,1010.59
2018-01-10T08:08:57.391Z,1010.59
2018-01-10T08:18:33.822Z,1010.59
2018-01-10T08:28:15.062Z,1010.59
2018-01-10T08:37:44.667Z,1010.59
2018-01-10T08:47:25.399Z,1010.59
2018-01-10T08:56:54.130Z,1010.59
2018-01-10T09:06:30.658Z,1010.59
2018-01-10T09:16:07.545Z,1010.59
2018-01-10T09:25:44.438Z,1010.59
2018-01-10T09:35:21.322Z,1010.59
2018-01-10T09:44:58.065Z,1009.54
2018-01-10T09:54:34.877Z,1009.54
2018-01-10T10:04:11.406Z,1009.54
2018-01-10T10:13:47.870Z,1009.54
2018-01-10T10:23:24.059Z,1009.54
2018-01-10T10:33:01.155Z,1009.54
2018-01-10T10:42:38.787Z,1009.54
2018-01-10T10:52:16.254Z,1009.54
2018-01-10T11:01:56.975Z,1008.50
2018-01-10T11:11:25.656Z,1008.50
2018-01-10T11:21:02.255Z,1008.50
2018-01-10T11:30:38.748Z,1008.50
2018-01-10T11:40:14.553Z,1008.50
2018-01-10T11:49:51.119Z,1008.50
2018-01-10T11:59:27.669Z,1008.50
2018-01-10T12:09:08.627Z,1008.50
2018-01-10T12:18:37.936Z,1008.50
2018-01-10T12:28:15.492Z,1008.50
2018-01-10T12:37:52.207Z,1007.45
2018-01-10T12:47:27.836Z,1008.50
2018-01-10T12:57:03.082Z,1008.50
2018-01-10T13:06:38.652Z,1008.50
2018-01-10T13:16:14.960Z,1008.50
2018-01-10T13:25:51.673Z,1007.45
2018-01-10T13:35:27.943Z,1007.45
2018-01-10T13:45:08.614Z,1007.45
2018-01-10T13:54:37.442Z,1007.45
2018-01-10T14:04:17.709Z,1007.45
2018-01-10T14:13:46.705Z,1007.45
2018-01-10T14:23:27.158Z,1008.50
2018-01-10T14:32:55.596Z,1007.45
2018-01-10T14:42:35.717Z,1007.45
2018-01-10T14:52:04.036Z,1007.45
2018-01-10T15:01:40.472Z,1007.45
2018-01-10T15:11:20.643Z,1008.50
2018-01-10T15:20:53.483Z,1008.50
2018-01-10T15:30:21.868Z,1007.45
2018-01-10T15:39:58.575Z,1008.50
2018-01-10T15:49:34.566Z,1008.50
2018-01-10T15:59:15.452Z,1008.50
2018-01-10T16:08:47.598Z,1008.50
2018-01-10T16:18:19.950Z,1008.50
2018-01-10T16:27:53.031Z,1008.50
2018-01-10T16:37:25.337Z,1008.50
2018-01-10T16:46:58.166Z,1008.50
2018-01-10T16:56:31.567Z,1008.50
2018-01-10T17:05:59.944Z,1008.50
2018-01-10T17:15:36.624Z,1008.50
2018-01-10T17:25:13.480Z,1008.50
2018-01-10T17:34:50.172Z,1008.50
2018-01-10T17:44:31.363Z,1008.50
2018-01-10T17:54:04.416Z,1008.50
2018-01-10T18:03:37.336Z,1008.50
2018-01-10T18:13:06.105Z,1008.50
2018-01-10T18:22:46.889Z,1008.50
2018-01-10T18:32:15.849Z,1008.50
2018-01-10T18:41:52.157Z,1008.50
2018-01-10T18:51:28.990Z,1008.50
2018-01-10T19:01:05.680Z,1008.50
2018-01-10T19:10:46.510Z,1008.50
2018-01-10T19:20:15.412Z,1008.50
2018-01-10T19:29:55.605Z,1008.50
2018-01-10T19:39:28.216Z,1008.50
2018-01-10T19:49:01.483Z,1008.50
2018-01-10T19:58:30.769Z,1008.50
2018-01-10T20:08:07.577Z,1008.50
2018-01-10T20:17:43.980Z,1008.50
2018-01-10T20:27:20.678Z,1008.50
2018-01-10T20:36:57.056Z,1008.50
2018-01-10T20:46:39.876Z,1008.50
2018-01-10T20:56:11.109Z,1008.50
2018-01-10T21:05:43.852Z,1008.50
2018-01-10T21:15:16.611Z,1008.50
2018-01-10T21:24:49.687Z,1008.50
2018-01-10T21:34:18.480Z,1008.50
2018-01-10T21:43:58.687Z,1008.50
2018-01-10T21:53:31.329Z,1008.50
2018-01-10T22:03:04.040Z,1008.50
2018-01-10T22:12:37.076Z,1008.50
2018-01-10T22:22:09.822Z,1008.50
2018-01-10T22:31:38.508Z,1008.50
2018-01-10T22:41:14.913Z,1008.50
2018-01-10T22:50:55.549Z,1008.50
2018-01-10T23:00:28.441Z,1008.50
2018-01-10T23:09:57.105Z,1008.50
2018-01-10T23:19:34.013Z,1008.50
2018-01-10T23:29:14.726Z,1008.50
2018-01-10T23:38:44.011Z,1008.50
2018-01-10T23:48:20.075Z,1008.50
2018-01-10T23:57:56.720Z,1008.50
